N5AC PAWG-PAPG
Flight info
| Callsign | N5AC |
|---|---|
| Flight time | 0h 9m |
| Altitude | 8000 |
| Route | VFR DCT |
| Aircraft | C25B/M-SDE2E3FGHRWXY/LB1 |
Departure
| Time | 2026-05-06 07:24 |
|---|---|
| Airport | Wrangell Airport (PAWG) |
Arrival
| Time | 2026-05-06 07:33 |
|---|---|
| Airport | Petersburg James A Johnson Airport (PAPG) |
| Time | Latitude | Longitude | Altitude | Speed | Heading |
|---|---|---|---|---|---|
| 2026-05-06 07:12 | 56.48530 | -132.37920 | 36 ft | 0 kts | 184° |
| 2026-05-06 07:19 | 56.48525 | -132.37902 | 36 ft | 4 kts | 77° |
| 2026-05-06 07:20 | 56.48551 | -132.37845 | 36 ft | 7 kts | 90° |
| 2026-05-06 07:20 | 56.48519 | -132.37733 | 37 ft | 12 kts | 109° |
| 2026-05-06 07:20 | 56.48511 | -132.37571 | 38 ft | 14 kts | 88° |
| 2026-05-06 07:20 | 56.48514 | -132.37367 | 38 ft | 18 kts | 89° |
| 2026-05-06 07:21 | 56.48488 | -132.37161 | 41 ft | 17 kts | 120° |
| 2026-05-06 07:21 | 56.48424 | -132.36964 | 41 ft | 19 kts | 121° |
| 2026-05-06 07:21 | 56.48352 | -132.36752 | 42 ft | 21 kts | 122° |
| 2026-05-06 07:21 | 56.48275 | -132.36524 | 44 ft | 21 kts | 121° |
| 2026-05-06 07:22 | 56.48196 | -132.36291 | 47 ft | 22 kts | 122° |
| 2026-05-06 07:22 | 56.48117 | -132.36061 | 48 ft | 22 kts | 122° |
| 2026-05-06 07:22 | 56.48047 | -132.35849 | 51 ft | 15 kts | 120° |
| 2026-05-06 07:22 | 56.48012 | -132.35748 | 49 ft | 4 kts | 253° |
| 2026-05-06 07:23 | 56.48027 | -132.35795 | 48 ft | 6 kts | 306° |
| 2026-05-06 07:23 | 56.48051 | -132.35863 | 49 ft | 7 kts | 301° |
| 2026-05-06 07:23 | 56.48071 | -132.35920 | 51 ft | 6 kts | 301° |
| 2026-05-06 07:23 | 56.48116 | -132.36056 | 49 ft | 38 kts | 302° |
| 2026-05-06 07:24 | 56.48493 | -132.37191 | 221 ft | 159 kts | 301° |
| 2026-05-06 07:24 | 56.49176 | -132.39148 | 1247 ft | 211 kts | 302° |
| 2026-05-06 07:24 | 56.49780 | -132.41764 | 1519 ft | 217 kts | 279° |
| 2026-05-06 07:24 | 56.49846 | -132.44310 | 1789 ft | 201 kts | 270° |
| 2026-05-06 07:25 | 56.49868 | -132.46872 | 2468 ft | 210 kts | 271° |
| 2026-05-06 07:25 | 56.49907 | -132.49750 | 3200 ft | 241 kts | 272° |
| 2026-05-06 07:25 | 56.50160 | -132.52705 | 3204 ft | 236 kts | 292° |
| 2026-05-06 07:25 | 56.51210 | -132.54961 | 3199 ft | 235 kts | 317° |
| 2026-05-06 07:26 | 56.52331 | -132.57090 | 3207 ft | 234 kts | 306° |
| 2026-05-06 07:26 | 56.53193 | -132.59585 | 3212 ft | 233 kts | 300° |
| 2026-05-06 07:26 | 56.54029 | -132.62116 | 3211 ft | 235 kts | 301° |
| 2026-05-06 07:26 | 56.54866 | -132.64657 | 3213 ft | 235 kts | 301° |
| 2026-05-06 07:27 | 56.55726 | -132.67180 | 3209 ft | 236 kts | 301° |
| 2026-05-06 07:27 | 56.56579 | -132.69714 | 3212 ft | 235 kts | 301° |
| 2026-05-06 07:27 | 56.57435 | -132.72254 | 3208 ft | 236 kts | 302° |
| 2026-05-06 07:27 | 56.58297 | -132.74802 | 3208 ft | 237 kts | 301° |
| 2026-05-06 07:28 | 56.59149 | -132.77358 | 3205 ft | 236 kts | 301° |
| 2026-05-06 07:28 | 56.60009 | -132.79900 | 3202 ft | 236 kts | 301° |
| 2026-05-06 07:28 | 56.61719 | -132.84994 | 3203 ft | 236 kts | 301° |
| 2026-05-06 07:29 | 56.62563 | -132.87549 | 3204 ft | 236 kts | 301° |
| 2026-05-06 07:29 | 56.63428 | -132.90076 | 3205 ft | 235 kts | 303° |
| 2026-05-06 07:29 | 56.64582 | -132.92148 | 3167 ft | 236 kts | 324° |
| 2026-05-06 07:29 | 56.66036 | -132.93609 | 2948 ft | 244 kts | 338° |
| 2026-05-06 07:30 | 56.67699 | -132.94152 | 2657 ft | 244 kts | 355° |
| 2026-05-06 07:30 | 56.69351 | -132.94159 | 2356 ft | 232 kts | 358° |
| 2026-05-06 07:30 | 56.70933 | -132.94199 | 2060 ft | 224 kts | 358° |
| 2026-05-06 07:30 | 56.72445 | -132.94342 | 1983 ft | 212 kts | 346° |
| 2026-05-06 07:31 | 56.73787 | -132.95387 | 1922 ft | 213 kts | 329° |
| 2026-05-06 07:31 | 56.74946 | -132.97149 | 1658 ft | 220 kts | 310° |
| 2026-05-06 07:31 | 56.75980 | -132.99138 | 1338 ft | 213 kts | 315° |
| 2026-05-06 07:31 | 56.77123 | -133.00670 | 1056 ft | 193 kts | 338° |
| 2026-05-06 07:32 | 56.78355 | -133.00555 | 795 ft | 176 kts | 22° |
| 2026-05-06 07:32 | 56.79213 | -132.99272 | 565 ft | 141 kts | 58° |
| 2026-05-06 07:32 | 56.79528 | -132.97792 | 360 ft | 114 kts | 71° |
| 2026-05-06 07:32 | 56.79780 | -132.96548 | 200 ft | 99 kts | 72° |
| 2026-05-06 07:33 | 56.80008 | -132.95414 | 105 ft | 90 kts | 72° |
| 2026-05-06 07:33 | 56.80175 | -132.94482 | 99 ft | 64 kts | 71° |
| 2026-05-06 07:33 | 56.80298 | -132.93829 | 97 ft | 47 kts | 70° |
| 2026-05-06 07:33 | 56.80366 | -132.93477 | 95 ft | 17 kts | 71° |
| 2026-05-06 07:34 | 56.80418 | -132.93378 | 96 ft | 9 kts | 11° |
| 2026-05-06 07:34 | 56.80471 | -132.93397 | 97 ft | 6 kts | 8° |
| 2026-05-06 07:34 | 56.80512 | -132.93420 | 97 ft | 7 kts | 343° |
| 2026-05-06 07:34 | 56.80546 | -132.93423 | 97 ft | 2 kts | 342° |
| 2026-05-06 07:35 | 56.80562 | -132.93446 | 97 ft | 5 kts | 336° |
| 2026-05-06 07:35 | 56.80573 | -132.93496 | 97 ft | 3 kts | 227° |
| 2026-05-06 07:35 | 56.80567 | -132.93481 | 97 ft | 3 kts | 56° |
| 2026-05-06 07:35 | 56.80566 | -132.93452 | 97 ft | 0 kts | 134° |